Strona główna
METAR-TAF:

METAR-TAF

Lotnisko :

Ortonville Municipal Airport (Martinson Field)

Ortonville, Minnesota, Stany Zjednoczone

Szerokość geograficzna: 45-18-20N, Długość geograficzna: 096-25-28W, wysokość: 335 m

Aktualna obserwacja pogody

Raport powstał 8 minut temu, godzina 22:36 UTC
Wiatr 4 kt od zachodnio-południowy zachód
Temperatura -18°C
Wilgotność 71%
Ciśnienie 1023 hPa
Widzialność: 16.1 km

METAR: KVVV 102236Z AUTO 24004KT 10SM M18/M22 A3021 RMK AO2

czas: 16:44 (22:44 UTC)


TAF: brakujący

Obserwacja i prognoza pogody dla ponad 4000 lotnisk (raport METAR i TAF).

Dostępne stacje oznaczono żółtymi i czerwonymi punktami na mapie.

Najedź kursorem aby zobaczyć nazwę stacji.

Kliknij aby zobaczyć obserwacje i prognozy pogody.

Aby zmienić mapę: kliknij na zielony przycisk z czarnym krzyżykiem, aby powiększyć; na zielony przycisk z myślnikiem, aby pomniejszyć; na zielone strzałki, aby przejść do map sąsiednich.


METAR-TAF: